Latest Weather Observations for Merimbula

IDN60801

Issued at 5:05 pm EST Tuesday 2 September 2014 (issued every 30 minutes, with the page automatically refreshed every 10 minutes)

About weather observations | Map of weather stations | Latest weather observations for NSW | Other Formats
Station Details ID: 069147 Name: MERIMBULA AIRPORT AWS Lat: -36.91 Lon: 149.90 Height: 1.5 m
Data from the previous 72 hours. | See also: Recent months at Merimbula
Date/Time
EST
Temp
°C
App
Temp
°C
Dew
Point
Rel
Hum
%
Delta-T
°C
Wind Press
QNH
hPa
Press
MSL
hPa
Rain
since 9 am
mm
Dir
 
Spd
km/h
Gust
km/h
Spd
kts
Gust
kts
02/05:00pm 9.8 5.3 8.4 91 0.7 SW 22 41 12 22 1011.8 - 3.0
02/04:59pm 9.8 5.3 8.4 91 0.7 SW 22 35 12 19 1011.7 - 3.0
02/04:54pm 9.8 5.6 8.2 90 0.8 SSW 20 35 11 19 1011.9 - 2.6
02/04:32pm 9.7 6.0 8.0 89 0.8 SW 17 24 9 13 1011.7 - 1.8
02/04:30pm 9.7 6.0 7.8 88 0.9 SW 17 24 9 13 1011.7 - 1.8
02/04:00pm 10.0 6.3 7.8 86 1.1 WSW 17 32 9 17 1011.2 - 1.0
02/03:30pm 9.6 6.5 7.2 85 1.1 WSW 13 20 7 11 1011.0 - 0.8
02/03:00pm 9.9 5.5 7.2 83 1.3 WSW 20 35 11 19 1010.8 1010.8 0.2
02/02:30pm 10.7 6.0 6.1 73 2.1 WSW 20 37 11 20 1010.5 - 0.0
02/02:00pm 11.9 5.9 5.3 64 3.0 SW 26 39 14 21 1010.2 - 0.0
02/01:30pm 13.0 7.8 5.7 61 3.4 SW 22 43 12 23 1009.9 - 0.0
02/01:00pm 13.2 7.2 5.1 58 3.8 SW 26 41 14 22 1009.5 - 0.0
02/12:30pm 13.3 6.9 5.0 57 3.8 SW 28 44 15 24 1009.5 - 0.0
02/12:00pm 13.1 8.2 5.3 59 3.6 SW 20 35 11 19 1010.0 1010.0 0.0
02/11:30am 13.2 8.4 5.6 60 3.6 SW 20 35 11 19 1009.9 - 0.0
02/11:01am 12.8 6.4 5.2 60 3.5 SW 28 54 15 29 1009.9 - 0.0
02/11:00am 12.8 6.8 5.2 60 3.5 SW 26 54 14 29 1009.9 - 0.0
02/10:30am 13.1 6.8 5.8 61 3.4 SW 28 50 15 27 1009.8 - 0.0
02/10:29am 13.1 6.8 5.8 61 3.4 SW 28 50 15 27 1009.7 - 0.0
02/10:00am 13.2 7.8 6.5 64 3.2 SW 24 41 13 22 1009.6 - 0.0
02/09:30am 12.8 8.8 6.6 66 3.0 WSW 17 30 9 16 1009.5 - 0.0
02/09:00am 12.4 8.7 6.5 67 2.8 WSW 15 26 8 14 1009.2 1009.2 5.0
02/08:30am 12.0 8.8 6.7 70 2.5 WSW 13 19 7 10 1009.3 - 5.0
02/08:00am 11.2 9.0 6.3 72 2.3 WNW 7 13 4 7 1009.3 - 5.0
02/07:30am 11.0 8.8 6.4 73 2.2 W 7 11 4 6 1009.3 - 5.0
02/07:00am 10.4 7.1 6.4 76 1.9 W 13 20 7 11 1008.9 - 5.0
02/06:30am 10.1 6.5 6.8 80 1.6 W 15 20 8 11 1009.0 - 5.0
02/06:00am 10.1 6.5 6.8 80 1.6 WSW 15 24 8 13 1009.0 1009.0 5.0
02/05:30am 10.0 6.2 7.6 85 1.1 WSW 17 28 9 15 1009.0 - 5.0
02/05:00am 9.9 5.8 7.7 86 1.1 SW 19 28 10 15 1008.9 - 4.8
02/04:30am 10.0 7.1 8.1 88 0.9 WSW 13 20 7 11 1008.7 - 3.6
02/04:00am 10.2 6.1 8.5 89 0.8 WSW 20 35 11 19 1008.7 - 3.2
02/03:30am 11.0 7.8 9.9 93 0.6 SSW 17 26 9 14 1008.3 - 2.0
02/03:00am 11.5 11.2 10.2 92 0.7 SSW 2 7 1 4 1008.2 1008.2 1.2
02/02:30am 11.6 11.7 10.0 90 0.8 CALM 0 0 0 0 1008.3 - 0.6
02/02:00am 12.0 10.1 10.4 90 0.8 SSE 11 15 6 8 1008.6 - 0.6
02/01:30am 12.1 10.2 10.5 90 0.8 SSE 11 17 6 9 1008.4 - 0.4
02/01:00am 11.7 11.9 10.4 92 0.7 CALM 0 0 0 0 1008.7 - 0.4
02/12:30am 11.9 12.1 10.5 91 0.7 CALM 0 0 0 0 1008.9 - 0.4
02/12:00am 12.4 12.7 11.0 91 0.7 CALM 0 0 0 0 1008.9 1008.9 0.4
 
Date/Time
EST
Temp
°C
App
Temp
°C
Dew
Point
Rel
Hum
%
Delta-T
°C
Wind Press
QNH
hPa
Press
MSL
hPa
Rain
since 9 am
mm
Dir
 
Spd
km/h
Gust
km/h
Spd
kts
Gust
kts
01/11:30pm 12.4 12.6 10.5 88 1.0 CALM 0 0 0 0 1008.8 - 0.4
01/11:00pm 13.0 11.9 10.7 86 1.2 S 7 13 4 7 1008.6 - 0.4
01/10:30pm 13.6 12.2 10.8 83 1.5 SSE 9 13 5 7 1008.9 - 0.4
01/10:00pm 14.6 11.0 9.8 73 2.5 S 19 28 10 15 1008.4 - 0.0
01/09:30pm 14.6 11.9 10.4 76 2.2 S 15 24 8 13 1008.2 - 0.0
01/09:00pm 14.2 13.3 10.8 80 1.8 NW 6 9 3 5 1007.4 1007.4 0.0
01/08:30pm 14.5 12.1 10.1 75 2.3 NNW 13 17 7 9 1007.4 - 0.0
01/08:00pm 15.0 13.2 10.8 76 2.2 N 11 13 6 7 1007.5 - 0.0
01/07:30pm 15.2 12.6 10.6 74 2.4 NW 15 17 8 9 1007.7 - 0.0
01/07:00pm 14.5 12.5 11.5 82 1.6 NW 13 20 7 11 1007.8 - 0.0
01/06:30pm 14.3 15.0 12.2 87 1.1 CALM 0 0 0 0 1007.7 - 0.0
01/06:00pm 14.4 15.1 12.1 86 1.2 SSW 0 0 0 0 1007.6 1007.6 0.0
01/05:30pm 15.3 16.1 12.6 84 1.5 CALM 0 0 0 0 1007.7 - 0.0
01/05:00pm 15.7 16.5 12.6 82 1.7 CALM 0 0 0 0 1007.6 - 0.0
01/04:30pm 16.5 17.3 12.7 78 2.1 CALM 0 0 0 0 1007.5 - 0.0
01/04:00pm 17.5 18.4 13.0 75 2.5 CALM 0 0 0 0 1007.4 - 0.0
01/03:30pm 17.7 18.5 12.4 71 2.9 CALM 0 0 0 0 1007.4 - 0.0
01/03:00pm 18.3 17.6 12.1 67 3.4 NE 7 11 4 6 1007.9 1007.9 0.0
01/02:30pm 17.7 16.3 12.2 70 3.0 NE 11 17 6 9 1007.9 - 0.0
01/02:00pm 18.2 16.5 11.3 64 3.8 ENE 11 15 6 8 1008.2 - 0.0
01/01:30pm 18.6 16.4 10.9 61 4.2 ENE 13 19 7 10 1008.7 - 0.0
01/01:00pm 20.1 18.8 11.3 57 4.8 NE 9 13 5 7 1009.0 - 0.0
01/12:30pm 18.9 18.4 11.9 64 3.9 ENE 6 11 3 6 1009.6 - 0.0
01/12:00pm 18.9 17.1 11.0 60 4.3 ESE 11 17 6 9 1010.0 1010.0 0.0
01/11:30am 18.6 18.7 10.2 58 4.5 CALM 0 0 0 0 1010.5 - 0.0
01/11:00am 18.1 17.6 7.8 51 5.2 CALM 0 0 0 0 1010.9 - 0.0
01/10:30am 17.2 16.6 7.5 53 4.9 CALM 0 0 0 0 1011.3 - 0.0
01/10:00am 15.0 13.6 8.7 66 3.2 N 6 13 3 7 1011.9 - 0.0
01/09:30am 13.0 12.8 9.1 77 2.0 CALM 0 0 0 0 1012.4 - 0.0
01/09:00am 10.9 10.7 9.2 89 0.8 CALM 0 0 0 0 1012.7 1012.7 0.2
01/08:30am 10.7 10.7 9.8 94 0.5 CALM 0 0 0 0 1013.1 - 0.2
01/08:00am 10.1 10.1 9.9 99 0.1 CALM 0 0 0 0 1013.3 - 0.2
01/07:30am 6.8 4.6 6.4 97 0.2 SSW 7 9 4 5 1013.6 - 0.2
01/07:00am 6.0 4.2 5.6 97 0.2 WSW 4 9 2 5 1013.3 - 0.2
01/06:57am 6.0 3.9 5.6 97 0.2 WSW 6 9 3 5 1013.4 - 0.2
01/06:33am 5.3 3.0 4.9 97 0.2 SW 6 9 3 5 1013.3 - 0.2
01/06:30am 5.3 2.8 4.9 97 0.2 SW 7 11 4 6 1013.3 - 0.2
01/06:00am 5.2 2.7 4.6 96 0.3 SSW 7 11 4 6 1013.6 1013.6 0.2
01/05:30am 5.6 3.2 5.2 97 0.2 SSW 7 9 4 5 1013.6 - 0.2
01/05:00am 6.0 3.3 5.6 97 0.2 SSW 9 11 5 6 1013.5 - 0.2
01/04:30am 6.3 4.0 5.9 97 0.2 SW 7 11 4 6 1013.3 - 0.2
01/04:00am 6.1 3.8 5.5 96 0.3 SSW 7 9 4 5 1013.4 - 0.0
01/03:30am 6.4 4.3 5.8 96 0.3 SSW 6 9 3 5 1013.7 - 0.0
01/03:00am 6.6 4.5 6.0 96 0.3 WSW 6 9 3 5 1013.9 1013.9 0.0
01/02:30am 6.2 4.8 5.6 96 0.3 SSW 2 7 1 4 1014.4 - 0.0
01/02:00am 6.6 4.4 6.0 96 0.3 SSW 7 9 4 5 1014.7 - 0.0
01/01:30am 6.6 4.4 6.0 96 0.3 SSW 7 9 4 5 1015.0 - 0.0
01/01:20am 6.8 4.8 6.2 96 0.3 SSW 6 9 3 5 1015.2 - 0.0
01/01:00am 7.3 5.2 6.7 96 0.3 SSW 7 9 4 5 1015.3 - 0.0
01/12:57am 7.3 5.2 6.7 96 0.3 SW 7 9 4 5 1015.3 - 0.0
01/12:49am 7.3 5.2 6.7 96 0.3 SW 7 9 4 5 1015.4 - 0.0
01/12:30am 7.3 5.2 6.7 96 0.3 WSW 7 9 4 5 1015.5 - 0.0
01/12:18am 7.7 5.7 7.1 96 0.3 SW 7 9 4 5 1015.6 - 0.0
01/12:00am 7.7 5.9 7.1 96 0.3 SW 6 9 3 5 1015.8 1015.8 0.0
 
Date/Time
EST
Temp
°C
App
Temp
°C
Dew
Point
Rel
Hum
%
Delta-T
°C
Wind Press
QNH
hPa
Press
MSL
hPa
Rain
since 9 am
mm
Dir
 
Spd
km/h
Gust
km/h
Spd
kts
Gust
kts
31/11:30pm 7.7 7.0 7.0 95 0.3 CALM 0 0 0 0 1016.0 - 0.0
31/11:13pm 8.4 7.8 7.6 95 0.4 CALM 0 0 0 0 1016.1 - 0.0
31/11:08pm 8.3 7.7 7.5 95 0.4 CALM 0 0 0 0 1016.2 - 0.0
31/11:00pm 8.3 7.7 7.5 95 0.4 CALM 0 0 0 0 1016.2 - 0.0
31/10:47pm 8.1 7.5 7.3 95 0.4 CALM 0 0 0 0 1016.3 - 0.0
31/10:42pm 8.5 7.9 7.6 94 0.4 CALM 0 0 0 0 1016.4 - 0.0
31/10:30pm 8.7 8.2 7.9 95 0.4 CALM 0 0 0 0 1016.5 - 0.0
31/10:00pm 9.2 8.8 8.4 95 0.4 CALM 0 0 0 0 1016.8 - 0.0
31/09:59pm 9.2 8.8 8.4 95 0.4 CALM 0 0 0 0 1016.9 - 0.0
31/09:30pm 10.0 7.8 9.2 95 0.4 NW 11 13 6 7 1017.1 - 0.0
31/09:00pm 9.8 8.8 8.9 94 0.4 NW 4 7 2 4 1017.1 1017.1 0.0
31/08:56pm 9.9 8.6 9.1 95 0.4 NW 6 11 3 6 1017.1 - 0.0
31/08:30pm 9.5 9.1 8.3 92 0.6 CALM 0 0 0 0 1017.2 - 0.0
31/08:00pm 10.0 9.7 8.6 91 0.7 CALM 0 0 0 0 1017.2 - 0.0
31/07:30pm 10.9 10.8 9.5 91 0.7 CALM 0 2 0 1 1017.3 - 0.0
31/07:00pm 12.0 10.9 10.6 91 0.7 NW 7 9 4 5 1017.2 - 0.0
31/06:30pm 12.1 12.0 9.5 84 1.3 CALM 0 0 0 0 1017.0 - 0.0
31/06:00pm 14.0 14.4 11.2 83 1.5 CALM 0 0 0 0 1016.8 1016.8 0.0
31/05:30pm 15.0 13.9 11.8 81 1.7 NE 9 15 5 8 1016.7 - 0.0
31/05:00pm 15.8 14.3 11.8 77 2.2 NE 11 15 6 8 1016.6 - 0.0
31/04:30pm 16.3 14.7 11.7 74 2.5 NE 11 19 6 10 1016.4 - 0.0
31/04:00pm 16.7 14.3 11.4 71 2.9 NE 15 24 8 13 1016.4 - 0.0
31/03:30pm 17.1 14.8 11.8 71 2.9 NE 15 22 8 12 1016.4 - 0.0
31/03:00pm 17.2 14.1 11.5 69 3.1 NE 19 24 10 13 1016.6 1016.6 0.0
31/02:30pm 17.1 13.7 11.2 68 3.2 NE 20 30 11 16 1016.7 - 0.0
31/02:00pm 17.7 14.8 11.0 65 3.6 NE 17 24 9 13 1016.9 - 0.0
31/01:30pm 17.4 14.4 10.5 64 3.7 NE 17 24 9 13 1017.2 - 0.0
31/01:00pm 17.8 15.3 11.1 65 3.6 NE 15 24 8 13 1017.6 - 0.0
31/12:30pm 17.7 14.5 10.1 61 4.0 NE 17 22 9 12 1018.0 - 0.0
31/12:00pm 18.1 15.8 10.5 61 4.1 ENE 13 20 7 11 1018.5 1018.5 0.0
31/11:30am 17.6 15.6 10.2 62 3.9 ESE 11 17 6 9 1019.0 - 0.0
31/11:00am 16.7 15.3 11.0 69 3.1 E 9 15 5 8 1019.5 - 0.0
31/10:30am 16.3 14.5 10.8 70 2.9 E 11 17 6 9 1019.9 - 0.0
31/10:00am 16.4 16.8 11.1 71 2.8 CALM 0 6 0 3 1020.2 - 0.0
31/09:30am 15.0 15.1 10.0 72 2.6 CALM 0 0 0 0 1020.4 - 0.0
31/09:00am 13.4 13.7 10.9 85 1.3 CALM 0 0 0 0 1020.6 1020.6 0.0
31/08:30am 11.3 11.5 10.4 94 0.5 CALM 0 0 0 0 1020.8 - 0.0
31/08:00am 9.7 9.5 9.2 97 0.2 CALM 0 0 0 0 1020.8 - 0.0
31/07:30am 7.9 7.3 7.6 98 0.1 CALM 0 6 0 3 1020.9 - 0.0
31/07:00am 6.2 3.9 5.8 97 0.2 WSW 7 7 4 4 1020.8 - 0.0
31/06:30am 5.5 3.1 5.1 97 0.2 SW 7 9 4 5 1020.7 - 0.0
31/06:23am 5.9 3.6 5.5 97 0.2 SW 7 9 4 5 1020.6 - 0.0
31/06:02am 5.3 3.0 4.7 96 0.3 W 6 7 3 4 1020.6 - 0.0
31/06:00am 5.1 2.7 4.5 96 0.3 W 6 7 3 4 1020.6 1020.6 0.0
31/05:30am 5.9 3.5 5.3 96 0.3 WSW 7 9 4 5 1020.5 - 0.0
31/05:00am 6.1 3.8 5.7 97 0.2 SW 7 9 4 5 1020.7 - 0.0
31/04:49am 6.0 3.6 5.4 96 0.3 SW 7 9 4 5 1020.6 - 0.0
31/04:30am 5.7 3.5 5.1 96 0.3 W 6 7 3 4 1020.6 - 0.0
31/04:26am 5.7 3.5 5.1 96 0.3 W 6 7 3 4 1020.6 - 0.0
31/04:00am 6.2 3.9 5.6 96 0.3 SW 7 9 4 5 1020.8 - 0.0
31/03:30am 6.0 3.8 5.4 96 0.3 W 6 9 3 5 1021.1 - 0.0
31/03:00am 6.3 4.2 5.7 96 0.3 SW 6 7 3 4 1021.3 1021.3 0.0
31/02:47am 6.4 4.1 5.8 96 0.3 SW 7 9 4 5 1021.4 - 0.0
31/02:30am 6.7 4.5 6.1 96 0.3 SW 7 7 4 4 1021.5 - 0.0
31/02:27am 6.7 4.5 6.1 96 0.3 SW 7 9 4 5 1021.6 - 0.0
31/02:00am 6.6 4.5 5.9 95 0.3 SW 6 7 3 4 1021.7 - 0.0
31/01:30am 6.8 4.6 6.1 95 0.3 SW 7 7 4 4 1022.0 - 0.0
31/01:00am 7.5 5.5 6.9 96 0.3 SW 7 9 4 5 1022.4 - 0.0
31/12:30am 7.7 5.9 7.0 95 0.3 WSW 6 7 3 4 1022.6 - 0.0
31/12:00am 8.0 6.1 7.4 96 0.3 SW 7 9 4 5 1022.9 1022.9 0.0
 
Date/Time
EST
Temp
°C
App
Temp
°C
Dew
Point
Rel
Hum
%
Delta-T
°C
Wind Press
QNH
hPa
Press
MSL
hPa
Rain
since 9 am
mm
Dir
 
Spd
km/h
Gust
km/h
Spd
kts
Gust
kts
30/11:30pm 8.2 6.3 7.4 95 0.4 SSW 7 9 4 5 1023.0 - 0.0
30/11:00pm 8.9 6.8 8.3 96 0.3 WNW 9 13 5 7 1023.2 - 0.0
30/10:45pm 8.5 6.8 7.7 95 0.4 WNW 6 9 3 5 1023.4 - 0.0
30/10:30pm 7.5 6.7 6.6 94 0.4 CALM 0 0 0 0 1023.5 - 0.0
30/10:00pm 8.3 7.7 7.4 94 0.4 CALM 0 0 0 0 1023.7 - 0.0
30/09:55pm 8.3 7.7 7.2 93 0.5 CALM 0 0 0 0 1023.8 - 0.0
30/09:52pm 8.0 7.3 6.9 93 0.5 CALM 0 0 0 0 1023.8 - 0.0
30/09:30pm 8.2 7.5 7.0 92 0.6 CALM 0 0 0 0 1024.0 - 0.0
30/09:08pm 8.8 8.3 7.7 93 0.5 CALM 0 0 0 0 1024.1 - 0.0
30/09:00pm 8.7 8.1 7.5 92 0.6 CALM 0 0 0 0 1024.1 1024.1 0.0
30/08:43pm 9.4 9.0 8.2 92 0.6 CALM 0 0 0 0 1024.1 - 0.0
30/08:30pm 9.2 8.7 7.8 91 0.7 CALM 0 0 0 0 1024.0 - 0.0
30/08:28pm 9.1 8.6 7.7 91 0.7 CALM 0 0 0 0 1024.0 - 0.0
30/08:00pm 9.9 9.5 8.2 89 0.8 CALM 0 0 0 0 1024.2 - 0.0
30/07:30pm 10.9 10.6 8.7 86 1.1 CALM 0 0 0 0 1024.2 - 0.0
30/07:00pm 12.1 10.8 9.3 83 1.4 S 6 11 3 6 1024.0 - 0.0
30/06:30pm 13.2 12.2 10.2 82 1.6 S 6 9 3 5 1024.0 - 0.0
30/06:00pm 13.8 12.7 10.6 81 1.7 SSW 7 9 4 5 1024.1 1024.1 0.0
30/05:30pm 14.2 12.7 10.6 79 1.9 SSE 9 15 5 8 1024.1 - 0.0

Other Formats:

Comma delimited format used in spreadsheet applications
http://www.bom.gov.au/fwo/IDN60801/IDN60801.95929.axf

JavaScript Object Notation format (JSON) in row-major order
http://www.bom.gov.au/fwo/IDN60801/IDN60801.95929.json